Time;durP1;ratioP1;P1;durP2;ratioP2;P2;SDS_P1;SDS_P2;PMS_P1;PMS_P2;Temp;Humidity;BMP_temperature;BMP_pressure;BME280_temperature;BME280_humidity;BME280_pressure;Samples;Min_cycle;Max_cycle;Signal;HPM_P1;HPM_P2
2024/01/06 00:01:20;;;;;;;7.87;5.93;;;8.70;99.90;;;;;;5001232;28;20223;-55
2024/01/06 00:03:46;;;;;;;10.43;5.33;;;8.70;99.90;;;;;;5001105;28;20235;-56
2024/01/06 00:06:14;;;;;;;11.10;5.13;;;8.70;99.90;;;;;;5004198;28;20202;-56
2024/01/06 00:08:42;;;;;;;7.87;4.93;;;8.70;99.90;;;;;;5004657;28;20234;-56
2024/01/06 00:11:09;;;;;;;7.83;5.17;;;8.70;99.90;;;;;;5002300;28;20640;-57
2024/01/06 00:13:36;;;;;;;8.17;5.10;;;8.70;99.90;;;;;;5000906;28;20228;-55
2024/01/06 00:16:03;;;;;;;7.00;5.07;;;8.70;99.90;;;;;;5002152;28;20594;-57
2024/01/06 00:18:29;;;;;;;7.30;5.23;;;8.70;99.90;;;;;;5004515;28;20595;-56
2024/01/06 00:20:56;;;;;;;7.20;4.80;;;8.70;99.90;;;;;;5004458;28;20294;-55
2024/01/06 00:23:23;;;;;;;6.27;4.80;;;8.70;99.90;;;;;;5004194;28;20234;-57
2024/01/06 00:25:51;;;;;;;7.53;4.50;;;8.70;99.90;;;;;;5004334;28;20213;-56
2024/01/06 00:28:18;;;;;;;7.30;4.40;;;8.70;99.90;;;;;;5000798;28;20255;-56
2024/01/06 00:30:44;;;;;;;8.27;4.43;;;8.80;99.90;;;;;;5000804;28;20649;-56
2024/01/06 00:33:12;;;;;;;7.90;4.17;;;8.80;99.90;;;;;;5002881;28;20713;-56
2024/01/06 00:35:39;;;;;;;4.87;3.37;;;8.80;99.90;;;;;;5004128;28;20203;-56
2024/01/06 00:38:06;;;;;;;5.83;3.80;;;8.80;99.90;;;;;;5002626;28;20211;-55
2024/01/06 00:40:32;;;;;;;4.23;2.97;;;8.80;99.90;;;;;;5000757;28;20242;-55
2024/01/06 00:43:00;;;;;;;6.43;3.03;;;8.90;99.90;;;;;;5000785;28;20366;-58
2024/01/06 00:45:27;;;;;;;4.50;2.80;;;8.90;99.90;;;;;;5004077;28;20203;-58
2024/01/06 00:47:54;;;;;;;5.57;2.80;;;8.90;99.90;;;;;;5003605;28;20566;-56
2024/01/06 00:50:20;;;;;;;5.00;2.93;;;8.80;99.90;;;;;;4999677;28;20211;-55
2024/01/06 00:52:47;;;;;;;5.07;3.00;;;8.80;99.90;;;;;;5000185;28;20254;-55
2024/01/06 00:55:14;;;;;;;5.47;2.73;;;8.80;99.90;;;;;;5003052;28;20346;-55
2024/01/06 00:57:40;;;;;;;7.80;2.80;;;8.80;99.90;;;;;;5003753;28;20207;-55
2024/01/06 01:00:09;;;;;;;5.17;2.63;;;8.80;99.90;;;;;;5001616;28;20842;-55
2024/01/06 01:02:36;;;;;;;4.20;2.80;;;8.80;99.90;;;;;;5000144;28;20262;-55
2024/01/06 01:05:03;;;;;;;5.83;2.80;;;8.80;99.90;;;;;;5001425;28;20211;-56
2024/01/06 01:07:30;;;;;;;5.10;2.67;;;8.80;99.90;;;;;;5003933;28;20210;-56
2024/01/06 01:09:57;;;;;;;5.97;2.63;;;8.90;99.90;;;;;;5003216;28;20203;-56
2024/01/06 01:12:24;;;;;;;3.83;2.43;;;8.90;99.90;;;;;;5000146;28;20211;-58
2024/01/06 01:14:51;;;;;;;5.33;2.77;;;8.90;99.90;;;;;;5000726;28;20211;-56
2024/01/06 01:17:19;;;;;;;6.13;2.40;;;8.90;99.90;;;;;;5003219;28;20234;-56
2024/01/06 01:19:46;;;;;;;4.47;2.40;;;8.90;99.90;;;;;;5003273;28;20245;-56
2024/01/06 01:22:13;;;;;;;4.13;2.73;;;8.90;99.90;;;;;;5000810;28;20625;-55
2024/01/06 01:24:40;;;;;;;4.43;2.50;;;8.90;99.90;;;;;;4999831;28;20208;-57
2024/01/06 01:27:06;;;;;;;4.87;2.70;;;8.90;99.90;;;;;;5001585;28;20220;-56
2024/01/06 01:29:33;;;;;;;5.43;3.27;;;8.90;99.90;;;;;;5003498;28;20226;-56
2024/01/06 01:32:00;;;;;;;4.20;2.47;;;8.90;99.90;;;;;;5002545;28;20280;-55
2024/01/06 01:34:28;;;;;;;5.40;2.93;;;8.90;99.90;;;;;;4999657;28;20224;-56
2024/01/06 01:36:54;;;;;;;5.07;2.70;;;8.90;99.90;;;;;;4999760;28;20207;-56
2024/01/06 01:39:21;;;;;;;5.43;3.40;;;8.90;99.90;;;;;;4991864;28;20215;-55
2024/01/06 01:41:48;;;;;;;7.70;2.80;;;8.90;99.90;;;;;;4999833;28;20281;-55
2024/01/06 01:44:14;;;;;;;3.70;2.80;;;8.80;99.90;;;;;;5001850;28;20235;-56
2024/01/06 01:46:41;;;;;;;6.93;3.23;;;8.80;99.90;;;;;;5003271;28;20587;-56
2024/01/06 01:49:08;;;;;;;3.50;2.70;;;8.80;99.90;;;;;;5001374;28;20207;-56
2024/01/06 01:51:38;;;;;;;7.10;3.63;;;8.80;99.90;;;;;;4999509;28;20203;-56
2024/01/06 01:54:06;;;;;;;5.57;3.47;;;8.80;99.90;;;;;;5000448;28;20255;-56
2024/01/06 01:56:34;;;;;;;6.67;3.30;;;8.80;99.90;;;;;;5003216;28;20578;-56
2024/01/06 01:59:04;;;;;;;5.10;2.77;;;8.80;99.90;;;;;;5002194;28;20302;-55
2024/01/06 02:01:31;;;;;;;4.03;2.87;;;8.70;99.90;;;;;;5000645;28;20227;-56
2024/01/06 02:03:58;;;;;;;5.47;2.80;;;8.70;99.90;;;;;;5003431;28;20235;-55
2024/01/06 02:06:25;;;;;;;4.57;2.87;;;8.80;99.90;;;;;;5006829;28;20207;-55
2024/01/06 02:08:54;;;;;;;3.87;2.40;;;8.80;99.90;;;;;;5006886;28;20209;-55
2024/01/06 02:11:20;;;;;;;5.43;2.77;;;8.80;99.90;;;;;;5003470;28;20210;-55
2024/01/06 02:13:47;;;;;;;5.40;2.70;;;8.70;99.90;;;;;;5003101;28;20289;-56
2024/01/06 02:16:14;;;;;;;3.93;2.27;;;8.70;99.90;;;;;;5005657;28;20212;-55
2024/01/06 02:18:40;;;;;;;4.37;2.50;;;8.60;99.90;;;;;;5006688;28;20298;-58
2024/01/06 02:21:07;;;;;;;4.30;2.60;;;8.60;99.90;;;;;;5005181;28;20716;-58
2024/01/06 02:23:37;;;;;;;5.20;2.80;;;8.60;99.90;;;;;;5002832;28;20228;-58
2024/01/06 02:26:04;;;;;;;4.47;2.10;;;8.50;99.90;;;;;;5004048;28;20208;-58
2024/01/06 02:28:31;;;;;;;4.90;2.30;;;8.50;99.90;;;;;;5006665;28;20198;-58
2024/01/06 02:30:57;;;;;;;3.80;2.20;;;8.50;99.90;;;;;;5006305;28;20199;-58
2024/01/06 02:33:24;;;;;;;6.30;2.20;;;8.50;99.90;;;;;;5002573;28;20367;-59
2024/01/06 02:35:51;;;;;;;4.30;2.63;;;8.50;99.90;;;;;;5002754;28;20702;-59
2024/01/06 02:38:18;;;;;;;3.30;2.23;;;8.50;99.90;;;;;;5005837;28;20290;-59
2024/01/06 02:40:46;;;;;;;6.93;2.23;;;8.60;99.90;;;;;;5006361;28;20227;-59
2024/01/06 02:43:13;;;;;;;6.60;2.20;;;8.60;99.90;;;;;;5003498;28;20237;-59
2024/01/06 02:45:39;;;;;;;5.97;2.27;;;8.60;99.90;;;;;;5003261;28;20208;-57
2024/01/06 02:48:06;;;;;;;4.87;1.97;;;8.60;99.90;;;;;;5004006;28;20211;-58
2024/01/06 02:50:33;;;;;;;5.73;1.90;;;8.60;99.90;;;;;;5006858;28;20248;-58
2024/01/06 02:53:00;;;;;;;4.63;2.00;;;8.50;99.90;;;;;;5005898;28;20230;-58
2024/01/06 02:55:26;;;;;;;3.43;1.80;;;8.60;99.90;;;;;;5002569;28;20564;-58
2024/01/06 02:57:54;;;;;;;7.03;2.07;;;8.60;99.90;;;;;;5002528;28;20207;-58
2024/01/06 03:00:21;;;;;;;5.37;1.80;;;8.60;99.90;;;;;;5005699;28;20283;-58
2024/01/06 03:02:48;;;;;;;4.40;1.60;;;8.60;99.90;;;;;;5006145;28;20231;-57
2024/01/06 03:05:15;;;;;;;3.97;1.60;;;8.60;99.90;;;;;;5003505;28;20567;-58
2024/01/06 03:07:41;;;;;;;3.73;1.90;;;8.60;99.90;;;;;;5003473;28;20207;-58
2024/01/06 03:10:09;;;;;;;6.63;1.87;;;8.60;99.90;;;;;;5004434;28;20204;-58
2024/01/06 03:12:35;;;;;;;3.13;1.40;;;8.60;99.90;;;;;;5005785;28;20223;-59
2024/01/06 03:15:04;;;;;;;6.20;1.90;;;8.60;99.90;;;;;;5004660;28;20203;-58
2024/01/06 03:17:30;;;;;;;4.20;1.83;;;8.70;99.90;;;;;;5002677;28;20671;-59
2024/01/06 03:19:57;;;;;;;6.63;2.20;;;8.70;99.90;;;;;;5002520;28;20200;-58
2024/01/06 03:22:24;;;;;;;5.07;1.80;;;8.60;99.90;;;;;;4994159;28;20228;-59
2024/01/06 03:24:51;;;;;;;4.90;1.70;;;8.70;99.90;;;;;;5002298;28;20204;-59
2024/01/06 03:27:17;;;;;;;7.30;1.80;;;8.70;99.90;;;;;;5004671;28;20220;-58
2024/01/06 03:29:44;;;;;;;3.80;1.60;;;8.70;99.90;;;;;;5005390;28;20700;-57
2024/01/06 03:32:12;;;;;;;3.47;1.60;;;8.70;99.90;;;;;;5003812;28;20249;-59
2024/01/06 03:34:39;;;;;;;7.07;1.80;;;8.60;99.90;;;;;;5002068;28;20211;-58
2024/01/06 03:37:05;;;;;;;3.47;1.70;;;8.60;99.90;;;;;;5002871;28;20677;-58
2024/01/06 03:39:32;;;;;;;5.70;1.60;;;8.60;99.90;;;;;;5005402;28;20210;-59
2024/01/06 03:41:59;;;;;;;6.97;2.00;;;8.50;99.90;;;;;;5004885;28;20222;-58
2024/01/06 03:44:30;;;;;;;3.67;1.93;;;8.60;99.90;;;;;;5050893;23;20234;-63
2024/01/06 03:46:57;;;;;;;6.33;1.73;;;8.50;99.90;;;;;;5033850;28;20590;-64
2024/01/06 03:49:25;;;;;;;3.87;1.70;;;8.50;99.90;;;;;;5033686;28;20214;-64
2024/01/06 03:51:51;;;;;;;6.07;2.00;;;8.50;99.90;;;;;;5033499;28;20202;-64
2024/01/06 03:54:18;;;;;;;3.93;1.60;;;8.50;99.90;;;;;;5025235;28;20289;-64
2024/01/06 03:56:45;;;;;;;3.97;1.60;;;8.30;99.90;;;;;;5025139;28;20633;-64
2024/01/06 03:59:11;;;;;;;3.80;1.70;;;8.10;99.90;;;;;;5023701;28;20202;-63
2024/01/06 04:01:38;;;;;;;7.60;1.80;;;8.10;99.90;;;;;;5021637;28;20294;-65
2024/01/06 04:04:05;;;;;;;3.83;1.40;;;8.00;99.90;;;;;;5022293;28;20421;-64
2024/01/06 04:06:33;;;;;;;5.00;1.53;;;7.90;99.90;;;;;;5025209;28;20199;-65
2024/01/06 04:09:00;;;;;;;3.40;1.60;;;7.90;99.90;;;;;;5024931;28;20556;-65
2024/01/06 04:11:27;;;;;;;2.83;1.40;;;8.00;99.90;;;;;;5021455;28;20203;-63
2024/01/06 04:13:54;;;;;;;2.30;1.33;;;8.00;99.90;;;;;;5021177;28;20226;-63
2024/01/06 04:16:22;;;;;;;4.23;1.30;;;8.10;99.90;;;;;;5024346;28;20218;-66
2024/01/06 04:18:49;;;;;;;3.33;1.60;;;8.10;99.90;;;;;;5024828;28;20202;-64
2024/01/06 04:21:16;;;;;;;6.10;1.57;;;8.00;99.90;;;;;;5022421;28;20222;-64
2024/01/06 04:23:44;;;;;;;4.50;1.57;;;8.10;99.90;;;;;;5020752;28;20230;-65
2024/01/06 04:26:11;;;;;;;2.77;1.20;;;8.10;99.90;;;;;;5022575;28;20203;-64
2024/01/06 04:28:37;;;;;;;2.57;1.37;;;8.20;99.90;;;;;;5024705;28;20264;-64
2024/01/06 04:31:04;;;;;;;3.00;1.50;;;8.20;99.90;;;;;;5023955;28;20199;-65
2024/01/06 04:33:31;;;;;;;5.03;1.80;;;8.20;99.90;;;;;;5020684;28;20238;-64
2024/01/06 04:35:58;;;;;;;6.33;1.53;;;8.20;99.90;;;;;;5020762;28;20301;-64
2024/01/06 04:38:25;;;;;;;4.60;1.33;;;8.20;99.90;;;;;;5013298;28;20215;-64
2024/01/06 04:40:53;;;;;;;3.63;1.47;;;8.20;99.90;;;;;;5020712;28;20611;-65
2024/01/06 04:43:20;;;;;;;4.17;1.40;;;8.10;99.90;;;;;;5022845;28;20719;-64
2024/01/06 04:45:47;;;;;;;2.77;1.40;;;8.10;99.90;;;;;;5024064;28;20660;-64
2024/01/06 04:48:13;;;;;;;5.60;1.70;;;8.10;99.90;;;;;;5022149;28;20554;-65
2024/01/06 04:50:40;;;;;;;3.53;1.40;;;8.10;99.90;;;;;;5020777;28;20261;-64
2024/01/06 04:53:07;;;;;;;3.77;1.77;;;8.10;99.90;;;;;;5021279;28;20249;-64
2024/01/06 04:55:34;;;;;;;5.47;1.60;;;8.10;99.90;;;;;;5023992;28;20700;-64
2024/01/06 04:58:02;;;;;;;6.00;1.60;;;8.10;99.90;;;;;;5023752;28;20749;-63
2024/01/06 05:00:28;;;;;;;3.43;1.37;;;8.10;99.90;;;;;;5012790;28;20203;-62
2024/01/06 05:02:54;;;;;;;3.77;1.43;;;8.20;99.90;;;;;;5020081;28;20645;-64
2024/01/06 05:05:21;;;;;;;3.50;1.63;;;8.30;99.90;;;;;;5022873;28;20213;-64
2024/01/06 05:07:48;;;;;;;7.10;2.07;;;8.30;99.90;;;;;;5023831;28;20203;-64
2024/01/06 05:10:14;;;;;;;5.80;1.70;;;8.30;99.90;;;;;;5021927;28;20209;-64
2024/01/06 05:12:41;;;;;;;5.87;1.57;;;8.30;99.90;;;;;;5020067;28;20222;-64
2024/01/06 05:15:10;;;;;;;2.63;1.10;;;8.20;99.90;;;;;;5020854;28;20700;-64
2024/01/06 05:17:37;;;;;;;7.23;1.40;;;8.20;99.90;;;;;;5023685;28;20256;-63
2024/01/06 05:20:04;;;;;;;3.03;1.50;;;8.20;99.90;;;;;;5023300;28;20289;-64
2024/01/06 05:22:31;;;;;;;5.07;1.30;;;8.20;99.90;;;;;;5019912;28;20246;-64
2024/01/06 05:24:57;;;;;;;3.43;1.47;;;8.20;99.90;;;;;;5020070;28;20203;-64
2024/01/06 05:27:24;;;;;;;2.67;1.30;;;8.30;99.90;;;;;;5023545;28;20202;-64
2024/01/06 05:29:51;;;;;;;6.63;1.67;;;8.40;99.90;;;;;;5023615;28;20271;-64
2024/01/06 05:32:19;;;;;;;2.97;1.30;;;8.40;99.90;;;;;;5020866;28;20240;-64
2024/01/06 05:34:46;;;;;;;4.00;1.37;;;8.40;99.90;;;;;;5019912;28;20199;-64
2024/01/06 05:37:13;;;;;;;4.00;1.80;;;8.50;99.90;;;;;;5021295;28;20207;-63
2024/01/06 05:39:39;;;;;;;3.67;1.30;;;8.60;99.90;;;;;;5023755;28;20205;-65
2024/01/06 05:42:06;;;;;;;2.90;1.30;;;8.60;99.90;;;;;;5022638;28;20218;-65
2024/01/06 05:44:36;;;;;;;5.13;1.50;;;8.60;99.90;;;;;;5019514;28;20233;-65
2024/01/06 05:47:03;;;;;;;5.33;1.40;;;8.70;99.90;;;;;;5019575;28;20650;-65
2024/01/06 05:49:31;;;;;;;4.30;1.40;;;8.70;99.90;;;;;;5023543;28;20202;-65
2024/01/06 05:51:57;;;;;;;4.60;1.30;;;8.60;99.90;;;;;;5023199;28;20663;-64
2024/01/06 05:54:24;;;;;;;4.57;1.80;;;8.60;99.90;;;;;;5020051;28;20229;-65
2024/01/06 05:56:51;;;;;;;6.17;1.50;;;8.60;99.90;;;;;;5019957;28;20202;-64
2024/01/06 05:59:18;;;;;;;3.57;1.50;;;8.60;99.90;;;;;;5021785;28;20210;-64
2024/01/06 06:01:45;;;;;;;4.70;1.50;;;8.50;99.90;;;;;;5022893;28;20222;-65
2024/01/06 06:04:12;;;;;;;4.67;1.63;;;8.50;99.90;;;;;;5022009;28;20226;-64
2024/01/06 06:06:40;;;;;;;4.23;1.80;;;8.50;99.90;;;;;;5020060;28;20653;-64
2024/01/06 06:09:08;;;;;;;3.97;1.57;;;8.40;99.90;;;;;;5020367;28;20253;-64
2024/01/06 06:11:35;;;;;;;4.77;1.60;;;8.50;99.90;;;;;;5023303;28;20194;-64
2024/01/06 06:14:02;;;;;;;6.30;1.87;;;8.50;99.90;;;;;;5022836;28;20222;-62
2024/01/06 06:16:29;;;;;;;4.13;2.03;;;8.50;99.90;;;;;;5023198;28;20301;-64
2024/01/06 06:18:56;;;;;;;4.23;1.73;;;8.50;99.90;;;;;;5023315;28;20206;-63
2024/01/06 06:21:22;;;;;;;5.90;1.70;;;8.50;99.90;;;;;;5020358;28;20221;-65
2024/01/06 06:23:51;;;;;;;3.57;1.73;;;8.60;99.90;;;;;;5019203;28;20231;-65
2024/01/06 06:26:18;;;;;;;4.60;1.93;;;8.50;99.90;;;;;;5021610;28;20203;-65
2024/01/06 06:28:44;;;;;;;3.50;1.70;;;8.50;99.90;;;;;;5022656;28;20210;-65
2024/01/06 06:31:11;;;;;;;2.03;1.30;;;8.40;99.90;;;;;;5021803;28;20210;-64
2024/01/06 06:33:39;;;;;;;3.07;1.40;;;8.40;99.90;;;;;;5019104;28;20223;-63
2024/01/06 06:36:06;;;;;;;3.93;1.47;;;8.40;99.90;;;;;;5019265;28;20242;-64
2024/01/06 06:38:32;;;;;;;4.77;1.97;;;8.40;99.90;;;;;;5022910;28;20217;-64
2024/01/06 06:41:00;;;;;;;2.90;1.73;;;8.40;99.90;;;;;;5022729;28;20253;-65
2024/01/06 06:43:27;;;;;;;3.50;1.57;;;8.40;99.90;;;;;;5018871;28;20230;-64
2024/01/06 06:45:55;;;;;;;5.33;1.93;;;8.40;99.90;;;;;;5019182;28;20269;-64
2024/01/06 06:48:22;;;;;;;3.47;1.53;;;8.50;99.90;;;;;;5019831;28;20206;-64
2024/01/06 06:50:49;;;;;;;6.53;1.83;;;8.50;99.90;;;;;;5022785;28;20199;-64
2024/01/06 06:53:16;;;;;;;4.10;2.10;;;8.60;99.90;;;;;;5023740;28;20701;-64
2024/01/06 06:55:42;;;;;;;4.93;2.17;;;8.60;99.90;;;;;;5025853;28;20211;-64
2024/01/06 06:58:10;;;;;;;4.10;1.97;;;8.60;99.90;;;;;;5025063;28;20587;-64
2024/01/06 07:00:37;;;;;;;5.93;1.80;;;8.50;99.90;;;;;;5022657;28;20293;-65
2024/01/06 07:03:04;;;;;;;4.63;1.70;;;8.50;99.90;;;;;;5022176;28;20684;-65
2024/01/06 07:05:31;;;;;;;7.30;1.67;;;8.50;99.90;;;;;;5025816;28;20278;-64
2024/01/06 07:08:00;;;;;;;4.13;1.80;;;8.50;99.90;;;;;;5025811;28;20276;-64
2024/01/06 07:10:27;;;;;;;3.80;1.73;;;8.60;99.90;;;;;;5022578;28;20210;-64
2024/01/06 07:12:53;;;;;;;4.27;1.70;;;8.60;99.90;;;;;;5022253;28;20222;-65
2024/01/06 07:15:22;;;;;;;2.87;1.43;;;8.60;99.90;;;;;;5024125;28;20207;-65
2024/01/06 07:17:48;;;;;;;5.20;1.50;;;8.60;99.90;;;;;;5025916;28;20207;-65
2024/01/06 07:20:15;;;;;;;3.93;1.50;;;8.60;99.90;;;;;;5024505;28;20702;-64
2024/01/06 07:22:42;;;;;;;5.90;1.60;;;8.60;99.90;;;;;;5022139;28;20219;-65
2024/01/06 07:25:09;;;;;;;4.20;1.83;;;8.60;99.90;;;;;;5022462;28;20200;-65
2024/01/06 07:27:35;;;;;;;3.93;1.57;;;8.60;99.90;;;;;;5025703;28;20356;-64
2024/01/06 07:30:02;;;;;;;2.60;1.50;;;8.60;99.90;;;;;;5025542;28;20207;-65
2024/01/06 07:32:30;;;;;;;4.20;1.90;;;8.60;99.90;;;;;;5021810;28;20199;-65
2024/01/06 07:34:57;;;;;;;6.83;1.97;;;8.60;99.90;;;;;;5021839;28;20203;-65
2024/01/06 07:37:24;;;;;;;3.53;1.30;;;8.70;99.90;;;;;;5024113;28;20689;-64
2024/01/06 07:39:50;;;;;;;3.73;1.67;;;8.70;99.90;;;;;;5025386;28;20206;-64
2024/01/06 07:42:17;;;;;;;4.67;2.00;;;8.70;99.90;;;;;;5023280;28;20232;-63
2024/01/06 07:44:44;;;;;;;1.70;1.40;;;8.80;99.90;;;;;;5021497;28;20234;-64
2024/01/06 07:47:10;;;;;;;4.73;1.67;;;8.90;99.90;;;;;;5022207;28;20665;-64
2024/01/06 07:49:38;;;;;;;5.33;2.77;;;8.90;99.90;;;;;;5024923;28;20229;-64
2024/01/06 07:52:05;;;;;;;4.37;2.13;;;8.90;99.90;;;;;;5024838;28;20248;-63
2024/01/06 07:54:32;;;;;;;2.90;1.57;;;8.90;99.90;;;;;;5013608;28;20234;-64
2024/01/06 07:56:59;;;;;;;4.67;1.40;;;8.90;99.90;;;;;;5021556;28;20199;-63
2024/01/06 07:59:25;;;;;;;2.60;1.53;;;9.00;99.90;;;;;;5023573;28;20700;-64
2024/01/06 08:01:52;;;;;;;2.87;1.40;;;9.00;99.90;;;;;;5024702;28;20209;-64
2024/01/06 08:04:19;;;;;;;3.00;1.37;;;9.10;99.90;;;;;;5022649;28;20226;-63
2024/01/06 08:06:47;;;;;;;3.13;1.63;;;9.10;99.90;;;;;;5021101;28;20213;-64
2024/01/06 08:09:13;;;;;;;2.97;1.70;;;9.10;99.90;;;;;;5022154;28;20214;-64
2024/01/06 08:11:42;;;;;;;4.30;1.47;;;9.10;99.90;;;;;;5024834;28;20233;-63
2024/01/06 08:14:10;;;;;;;5.97;3.80;;;9.20;99.90;;;;;;5023850;28;20226;-64
2024/01/06 08:16:37;;;;;;;3.17;2.10;;;9.20;99.90;;;;;;5021136;28;20202;-63
2024/01/06 08:19:04;;;;;;;3.77;2.03;;;9.20;99.90;;;;;;5020884;28;20310;-63
2024/01/06 08:21:30;;;;;;;4.53;2.03;;;9.20;99.90;;;;;;5024058;28;20213;-63
2024/01/06 08:23:58;;;;;;;4.30;2.30;;;8.90;99.90;;;;;;5023990;28;20228;-64
2024/01/06 08:26:25;;;;;;;3.73;2.03;;;8.70;99.90;;;;;;5021792;28;20264;-64
2024/01/06 08:28:52;;;;;;;8.03;4.40;;;8.70;99.90;;;;;;5020690;28;20746;-64
2024/01/06 08:31:19;;;;;;;4.80;2.03;;;8.90;99.90;;;;;;5022071;28;20239;-64
2024/01/06 08:33:45;;;;;;;7.17;4.83;;;9.10;99.90;;;;;;5023797;28;20226;-64
2024/01/06 08:36:12;;;;;;;7.60;4.00;;;9.20;99.90;;;;;;5023263;28;20202;-63
2024/01/06 08:38:39;;;;;;;4.07;2.30;;;9.20;99.90;;;;;;5020537;28;20221;-64
2024/01/06 08:41:07;;;;;;;5.77;3.20;;;9.30;99.90;;;;;;5020603;28;20207;-63
2024/01/06 08:43:34;;;;;;;4.23;2.40;;;9.40;99.90;;;;;;5023610;28;20276;-64
2024/01/06 08:46:02;;;;;;;3.33;2.10;;;9.50;99.90;;;;;;5023888;28;20203;-63
2024/01/06 08:48:28;;;;;;;3.03;2.00;;;9.60;99.90;;;;;;5020830;28;20479;-64
2024/01/06 08:50:55;;;;;;;3.90;2.00;;;9.70;99.90;;;;;;5020680;28;20237;-63
2024/01/06 08:53:22;;;;;;;4.10;1.90;;;9.70;99.90;;;;;;5022061;28;20293;-63
2024/01/06 08:55:48;;;;;;;3.90;2.10;;;9.70;99.90;;;;;;5023671;28;20275;-64
2024/01/06 08:58:17;;;;;;;4.00;2.07;;;9.80;99.90;;;;;;5022601;28;20202;-63
2024/01/06 09:00:44;;;;;;;3.77;2.27;;;9.80;99.90;;;;;;5020190;28;20261;-64
2024/01/06 09:03:12;;;;;;;3.40;2.00;;;9.90;99.90;;;;;;5020069;28;20227;-63
2024/01/06 09:05:39;;;;;;;4.40;1.90;;;9.90;99.90;;;;;;5023603;28;20460;-64
2024/01/06 09:08:06;;;;;;;3.97;1.70;;;9.90;99.90;;;;;;5023564;28;20702;-63
2024/01/06 09:10:33;;;;;;;14.27;10.13;;;9.90;99.90;;;;;;5020022;28;20211;-63
2024/01/06 09:13:01;;;;;;;3.27;2.87;;;9.90;99.90;;;;;;5019324;28;20684;-64
2024/01/06 09:15:29;;;;;;;2.87;2.07;;;9.80;99.90;;;;;;5022374;28;20298;-63
2024/01/06 09:17:56;;;;;;;3.33;2.20;;;9.60;99.90;;;;;;5023603;28;20250;-62
2024/01/06 09:20:23;;;;;;;3.63;2.10;;;9.50;99.90;;;;;;5021519;28;20210;-63
2024/01/06 09:22:50;;;;;;;3.97;2.27;;;9.60;99.90;;;;;;5019600;28;20226;-62
2024/01/06 09:25:17;;;;;;;3.60;2.03;;;9.60;99.90;;;;;;5020876;28;20305;-63
2024/01/06 09:27:43;;;;;;;2.50;2.10;;;9.70;99.90;;;;;;5023084;28;20209;-62
2024/01/06 09:30:11;;;;;;;7.03;2.77;;;9.90;99.90;;;;;;5022765;28;20683;-63
2024/01/06 09:32:40;;;;;;;5.00;2.20;;;9.90;99.90;;;;;;5019548;28;20195;-63
2024/01/06 09:35:07;;;;;;;3.17;1.87;;;9.90;99.90;;;;;;5019724;28;20210;-63
2024/01/06 09:37:34;;;;;;;3.20;1.90;;;9.80;99.90;;;;;;5011531;28;20692;-63
2024/01/06 09:40:01;;;;;;;4.37;2.30;;;9.80;99.90;;;;;;5019780;28;20202;-63
2024/01/06 09:42:28;;;;;;;3.93;2.33;;;9.60;99.90;;;;;;5021476;28;20207;-62
2024/01/06 09:44:54;;;;;;;3.83;2.30;;;9.50;99.90;;;;;;5023298;28;20209;-63
2024/01/06 09:47:23;;;;;;;4.43;2.60;;;9.40;99.90;;;;;;5021439;28;20210;-63
2024/01/06 09:49:51;;;;;;;3.50;2.50;;;9.50;99.90;;;;;;5019576;28;20206;-62
2024/01/06 09:52:22;;;;;;;4.97;2.50;;;9.70;99.90;;;;;;5020294;28;20601;-62
2024/01/06 09:54:53;;;;;;;8.63;5.10;;;9.80;99.90;;;;;;5022814;28;20202;-62
2024/01/06 09:57:19;;;;;;;4.07;2.90;;;9.60;99.90;;;;;;5021466;28;20217;-62
2024/01/06 09:59:46;;;;;;;3.93;2.53;;;9.40;99.90;;;;;;5019636;28;20207;-62
2024/01/06 10:02:16;;;;;;;3.30;2.70;;;9.60;99.90;;;;;;5019795;28;20203;-63
2024/01/06 10:04:43;;;;;;;4.63;2.60;;;9.70;99.90;;;;;;5022647;28;20253;-64
2024/01/06 10:07:13;;;;;;;2.97;2.70;;;9.60;99.90;;;;;;5022728;28;20593;-62
2024/01/06 10:09:41;;;;;;;7.70;3.20;;;9.80;99.90;;;;;;5022860;28;20252;-63
2024/01/06 10:12:08;;;;;;;3.93;3.00;;;10.00;99.90;;;;;;5023158;28;20252;-65
2024/01/06 10:14:35;;;;;;;3.73;2.67;;;10.30;99.90;;;;;;5018887;28;20726;-63
2024/01/06 10:17:02;;;;;;;3.70;2.43;;;10.00;99.90;;;;;;5019418;28;20490;-64
2024/01/06 10:19:29;;;;;;;6.70;3.37;;;9.60;99.90;;;;;;5021650;28;20207;-63
2024/01/06 10:22:00;;;;;;;3.77;2.70;;;9.30;99.90;;;;;;5014106;28;20700;-65
2024/01/06 10:24:28;;;;;;;3.88;2.97;;;9.10;99.90;;;;;;5024545;28;20888;-68
2024/01/06 10:26:55;;;;;;;3.93;2.90;;;9.30;99.90;;;;;;5024624;28;20203;-64
2024/01/06 10:29:21;;;;;;;3.17;2.70;;;9.20;99.90;;;;;;5024436;28;20687;-65
2024/01/06 10:31:49;;;;;;;5.10;3.53;;;9.00;99.90;;;;;;5026097;28;20630;-64
2024/01/06 10:34:16;;;;;;;4.37;3.30;;;8.90;99.90;;;;;;5025347;28;20260;-65
2024/01/06 10:36:43;;;;;;;4.40;3.07;;;9.00;99.90;;;;;;5022666;28;20214;-65
2024/01/06 10:39:09;;;;;;;5.27;3.13;;;9.00;99.90;;;;;;5023207;28;20206;-66
2024/01/06 10:41:42;;;;;;;5.27;2.87;;;9.00;99.90;;;;;;5026128;28;20214;-65
2024/01/06 10:44:10;;;;;;;5.60;2.80;;;9.00;99.90;;;;;;5025618;28;20313;-64
2024/01/06 10:46:38;;;;;;;4.30;3.13;;;8.90;99.90;;;;;;5014555;28;20214;-65
2024/01/06 10:49:08;;;;;;;4.20;2.83;;;8.80;99.90;;;;;;5022541;28;20206;-65
2024/01/06 10:51:35;;;;;;;5.47;3.97;;;8.80;99.90;;;;;;5025643;28;20289;-65
2024/01/06 10:54:02;;;;;;;4.03;2.90;;;8.90;99.90;;;;;;5025518;28;20221;-65
2024/01/06 10:56:30;;;;;;;3.47;2.53;;;9.00;99.90;;;;;;5024051;28;20297;-65
2024/01/06 10:58:59;;;;;;;2.67;2.33;;;9.20;99.90;;;;;;5022551;28;20207;-65
2024/01/06 11:01:25;;;;;;;3.23;2.30;;;9.40;99.90;;;;;;5024051;28;20215;-64
2024/01/06 11:03:54;;;;;;;3.03;2.30;;;9.60;99.90;;;;;;5025268;28;20230;-63
2024/01/06 11:06:22;;;;;;;2.30;2.10;;;9.60;99.90;;;;;;5024796;28;20206;-63
2024/01/06 11:08:53;;;;;;;30.43;21.67;;;9.60;99.90;;;;;;5022418;28;20214;-63
2024/01/06 11:11:21;;;;;;;4.03;2.33;;;9.60;99.90;;;;;;5023479;28;20665;-65
2024/01/06 11:13:48;;;;;;;2.57;2.30;;;9.60;99.90;;;;;;5025690;28;20214;-65
2024/01/06 11:16:34;;;;;;;2.30;2.00;;;9.60;99.90;;;;;;5025214;28;20675;-65
2024/01/06 11:19:01;;;;;;;2.63;2.10;;;9.80;99.90;;;;;;5022275;28;20239;-65
2024/01/06 11:21:29;;;;;;;3.93;2.30;;;9.90;99.90;;;;;;5024008;28;20661;-66
2024/01/06 11:24:16;;;;;;;2.77;2.07;;;10.10;99.90;;;;;;5025502;28;20462;-65
2024/01/06 11:26:44;;;;;;;3.23;2.27;;;10.10;99.90;;;;;;5014308;28;20242;-65
2024/01/06 11:29:11;;;;;;;2.67;2.30;;;10.20;99.90;;;;;;5022255;28;20290;-65
2024/01/06 11:31:39;;;;;;;3.67;2.47;;;10.30;99.90;;;;;;5021516;28;20207;-65
2024/01/06 11:34:15;;;;;;;3.83;2.67;;;10.40;99.90;;;;;;5020894;28;20226;-66
2024/01/06 11:36:43;;;;;;;5.30;2.90;;;10.30;99.90;;;;;;5014444;28;20203;-64
2024/01/06 11:39:38;;;;;;;3.23;2.87;;;10.30;99.90;;;;;;5021745;28;20206;-67
2024/01/06 11:42:05;;;;;;;3.93;3.00;;;10.20;99.90;;;;;;5017511;28;20203;-67
2024/01/06 11:44:35;;;;;;;5.00;2.90;;;10.20;99.90;;;;;;5023395;28;20223;-64
2024/01/06 11:47:04;;;;;;;10.03;5.67;;;10.10;99.90;;;;;;5024951;28;20214;-64
2024/01/06 11:49:31;;;;;;;5.50;3.53;;;10.10;99.90;;;;;;5022247;28;20576;-64
2024/01/06 11:51:59;;;;;;;5.20;3.47;;;10.20;99.90;;;;;;5021896;28;20207;-63
2024/01/06 11:54:25;;;;;;;4.37;3.40;;;10.30;99.90;;;;;;5022976;28;20230;-64
2024/01/06 11:56:53;;;;;;;3.60;3.03;;;10.40;99.90;;;;;;5024957;28;20203;-63
2024/01/06 11:59:19;;;;;;;3.70;3.30;;;10.30;99.90;;;;;;5023751;28;20272;-64
2024/01/06 12:01:47;;;;;;;8.93;6.60;;;10.30;99.90;;;;;;5021237;28;20198;-64
2024/01/06 12:04:16;;;;;;;4.37;3.30;;;10.20;99.90;;;;;;5020818;28;20223;-64
2024/01/06 12:06:43;;;;;;;9.77;5.97;;;10.10;99.90;;;;;;5013920;28;20202;-63
2024/01/06 12:09:15;;;;;;;5.27;3.50;;;10.10;99.90;;;;;;5021276;28;20621;-63
2024/01/06 12:11:44;;;;;;;5.23;3.37;;;10.20;99.90;;;;;;5013442;28;20704;-64
2024/01/06 12:14:11;;;;;;;3.93;3.33;;;10.20;99.90;;;;;;5020786;28;20696;-64
2024/01/06 12:16:38;;;;;;;4.47;3.17;;;10.30;99.90;;;;;;5024237;28;20664;-64
2024/01/06 12:19:04;;;;;;;3.87;3.40;;;10.30;99.90;;;;;;5024799;28;20209;-64
2024/01/06 12:21:37;;;;;;;18.63;15.30;;;10.20;99.90;;;;;;5021954;28;20206;-64
2024/01/06 12:24:27;;;;;;;7.03;6.07;;;10.10;99.90;;;;;;5020551;28;20223;-64
2024/01/06 12:26:55;;;;;;;6.77;5.10;;;10.10;99.90;;;;;;5014448;28;20210;-63
2024/01/06 12:29:22;;;;;;;5.97;3.90;;;10.00;99.90;;;;;;5022066;28;20211;-64
2024/01/06 12:31:49;;;;;;;4.43;3.60;;;10.00;99.90;;;;;;5024392;28;20256;-63
2024/01/06 12:34:16;;;;;;;4.80;3.77;;;10.00;99.90;;;;;;5023775;28;20276;-63
2024/01/06 12:36:46;;;;;;;4.80;3.70;;;9.70;99.90;;;;;;5020982;28;20202;-64
2024/01/06 12:39:14;;;;;;;5.10;4.00;;;9.80;99.90;;;;;;5020929;28;20203;-64
2024/01/06 12:41:41;;;;;;;6.30;4.10;;;9.80;99.90;;;;;;5012546;28;20206;-64
2024/01/06 12:44:09;;;;;;;6.40;4.17;;;9.50;99.90;;;;;;5020086;28;20314;-63
2024/01/06 12:46:36;;;;;;;5.70;4.83;;;9.30;99.90;;;;;;5022357;28;20206;-63
2024/01/06 12:49:03;;;;;;;4.67;3.60;;;9.20;99.90;;;;;;5024049;28;20214;-63
2024/01/06 12:51:29;;;;;;;7.23;4.37;;;9.20;99.90;;;;;;5021844;28;20294;-63
2024/01/06 12:53:57;;;;;;;5.13;3.80;;;9.10;99.90;;;;;;5019973;28;20314;-61
2024/01/06 12:56:24;;;;;;;9.07;4.53;;;9.30;99.90;;;;;;5021504;28;20217;-64